Chhatrapati Shivaji International Airport
VABB : now visible

Airfield :











YOU CAN JOIN US ON...

 
LOGIN :

Register | Disclaimer

   EN    FR    IT 

 









Legend :    VFR   Marginal VFR   IFR   Intensive IFR   Very Intensive IFR
Visi :
Ceiling :
>= 8 km
>= 3000ft
5 to 8 km
1000 to 3000 ft
1500m to 5 km
500 to 1000 ft
800 to 1500m
200 to 500 ft
< 800m
< 200 ft
Symbols :   Thunderstorms  Fog  Heavy snow  Heavy precipitations  Wind > 20 kt






- Airport Elevation : 37 ft
- IATA code : BOM


VABB - Chhatrapati Shivaji International

CURRENT METAR :
  • 250030Z 29009KT 1500 -RA SCT010 SCT015 FEW030CB OVC080 26/23 Q0999 TEMPO 0800 +SHRA

EXPIRED METARs :
  • 250000Z 25009G19KT 1500 -RA SCT010 SCT015 FEW030CB OVC080 26/25 Q0999 TEMPO 0800 +SHRA
  • 242330Z 29007KT 1500 -RA SCT010 SCT015 FEW030CB OVC080 26/24 Q0999 TEMPO 0800 +SHRA
  • 242300Z 30007G17KT 0800 R27/1000 +RA SCT010 SCT015 FEW030CB OVC080 25/23 Q0998 TEMPO 0550 +SHRA
  • 242230Z 25008G18KT 1800 -DZ SCT010 SCT015 FEW030CB OVC080 26/24 Q0998 TEMPO 0800 +SHRA
  • 242200Z 27012G22KT 1500 -RA SCT010 SCT015 FEW030CB OVC080 27/25 Q0998 TEMPO 0800 +SHRA
  • 242130Z 26011G21KT 1500 -RA SCT010 SCT015 FEW030CB OVC080 27/26 Q0998 TEMPO 0800 +SHRA
  • 242100Z 25011G21KT 1500 RA SCT010 SCT015 FEW030CB OVC080 27/25 Q0999 TEMPO 0800 +SHRA
  • 242030Z 26010G20KT 1500 RA SCT010 SCT015 FEW030CB OVC080 27/25 Q0999 TEMPO 0800 +SHRA
  • 242000Z 27010G20KT 1500 -RA SCT010 SCT015 FEW030CB OVC080 27/25 Q0999 TEMPO 0800 +SHRA

TAF TAF VABB
Valid from the 25 at 00:00 until the 26 at 06:00 UTC


242300Z 2500/2606 24010G20KT 2000 -RA -SHRA DZ SCT015 FEW025TCU OVC090
BECMG 2504/2506 2500 -RA -SHRA DZ
TEMPO 2506/2514 24015G25KT 1000 +SHRA RA SCT008 SCT015 FEW030CB OVC080
BECMG 2515/2517 25012KT 2000 -RA DZ BR SCT018 FEW025TCU BKN090
TEMPO 2518/2524 24010G20KT
BECMG 2604/2606 26012KT 2500 -RA DZ HZ SCT018 SCT025 BKN090
VABF FIR / Asia



MET'MAP, your aeronautical weather chart ! - Copyright ORBIFLY December 2007 - Disclaimer

ORBIFLY MET'MAP TEAM :

Programming & Development : Alexandra Zaïnal
Original concept : Baudouin d'Aumeries
Technical & hardware support : Manuel Goepfert
Assistance : Marc-Olivier Méhu




SOURCES & CREDITS :

   NOAA       Earth
Advisory